Broadmeadows, Australia
Current Conditions -  °F | °C
As of 4:00 PM on Thursday 27 Nov 2014 (Local Time) from YMEN Reporting Station
Clear Clear  
Wind Chill: 18°   Ceiling: Unl
Heat Index: 18°   Visibility: 6mi
Dew Point:   Wind: 17mph
Humidity: 56%   Direction: 190°S
Pressure: 30.24"   Gusts: NA
Location:  37.68°S, 144.92°E
Report Text: YMEN 270500Z AUTO 19015KT 9999 // NCD 18/09 Q1024
Loading
Personal Weather Stations






























Interactive Weather Map New forecast layout! Learn more

10-Day Weather Forecast

Advertisements
Track Severe Weather on mobile